Pagina principale
METAR-TAF:

METAR-TAF

Aeroporti :

Buochs, Svizzera

latitudine: 46-58-28N, longitudine: 8-23-49E, altezza: 449 m

Osservazione

Il bollettino è stato emesso 27 minuti fa, alle 03:20 UTC
Vento 6 kt da ovest/nord-ovest, variando fra ovest/sud-ovest e nord/nord-ovest
Temperature 7°C
Umidità 81%
Pressione 1030 hPa
Visibilità 10 km o più
Nuvoloso ad un'altezza di 1700 ft
pioviggine debole

METAR: LSZC 270320Z AUTO 29006KT 240V340 9999 -DZ BKN017 07/04 Q1030

Ora: 04:47 (03:47 UTC)

Previsione

Il bollettino è stato emesso 13 ore e 22 minuti fa, alle 14:25 UTC
Previsione valida dal 26 alle 15 UTC al 26 alle 24 UTC
Vento 5 kt da est/sud-est
Visibilità 10 km o più
nessuna nube inferiore a 1500 m e nessun cumulonembo
Evoluzione graduale
dal 26 alle 15 UTC al 26 alle 17 UTC
Visibilità 10 km o più
Nubi sparse ad un'altezza di 10000 ft

TAF: LSZC 261425Z 2615/2624 11005KT CAVOK BECMG 2615/2617 9999 SCT100

Osservazioni e previsioni meteorologiche di più di 4000 aeroporti (messaggi METAR e TAF).

Le stazioni disponibili sono rappresentate dai dischi gialli e rossi sulla carta.

Puntare il mouse per vedere il nome della stazione.

Clicca sopra per visualizzare le osservazioni e previsioni meteorologiche.

Per cambiare la mappa : fare clic sui pulsanti verdi con una croce nera per ingrandire, il pulsante verde con un trattino per diminuire, o sulla freccia verde per le mappe adiacenti.


METAR-TAF: